createdAt,value
2022-08-27T00:11:26.191Z,6.63
2022-08-27T00:16:29.858Z,7.00
2022-08-27T00:21:37.071Z,6.88
2022-08-27T00:26:43.305Z,7.50
2022-08-27T00:31:52.670Z,6.97
2022-08-27T00:36:57.873Z,7.15
2022-08-27T00:42:01.921Z,7.80
2022-08-27T00:47:11.291Z,7.28
2022-08-27T00:52:23.705Z,8.13
2022-08-27T00:57:28.341Z,7.97
2022-08-27T01:02:32.548Z,6.82
2022-08-27T01:07:41.894Z,5.40
2022-08-27T01:12:53.385Z,6.60
2022-08-27T01:17:59.030Z,6.57
2022-08-27T01:23:25.937Z,7.65
2022-08-27T01:28:37.356Z,6.78
2022-08-27T01:33:41.907Z,7.22
2022-08-27T01:38:47.860Z,6.40
2022-08-27T01:43:52.774Z,6.35
2022-08-27T01:48:57.041Z,6.43
2022-08-27T01:54:00.398Z,5.95
2022-08-27T01:59:03.530Z,6.15
2022-08-27T02:04:06.575Z,5.53
2022-08-27T02:09:09.691Z,6.78
2022-08-27T02:14:14.364Z,6.00
2022-08-27T02:19:17.689Z,6.50
2022-08-27T02:24:21.209Z,6.05
2022-08-27T02:29:25.707Z,6.40
2022-08-27T02:34:29.776Z,7.35
2022-08-27T02:39:33.126Z,6.53
2022-08-27T02:44:36.676Z,6.97
2022-08-27T02:49:40.115Z,6.72
2022-08-27T02:54:44.171Z,7.28
2022-08-27T02:59:47.429Z,6.90
2022-08-27T03:04:51.715Z,7.72
2022-08-27T03:09:55.015Z,8.05
2022-08-27T03:15:00.943Z,7.78
2022-08-27T03:20:05.302Z,8.15
2022-08-27T03:25:10.608Z,7.18
2022-08-27T03:30:18.808Z,7.20
2022-08-27T03:35:22.633Z,7.43
2022-08-27T03:40:25.772Z,7.45
2022-08-27T03:45:29.252Z,7.03
2022-08-27T03:50:47.607Z,7.65
2022-08-27T03:55:51.058Z,7.68
2022-08-27T04:00:54.118Z,7.22
2022-08-27T04:05:58.525Z,7.03
2022-08-27T04:11:05.367Z,5.85
2022-08-27T04:16:10.192Z,6.38
2022-08-27T04:21:16.177Z,6.20
2022-08-27T04:26:20.099Z,5.22
2022-08-27T04:31:23.882Z,5.03
2022-08-27T04:36:27.141Z,4.80
2022-08-27T04:41:34.029Z,4.97
2022-08-27T04:46:40.014Z,4.57
2022-08-27T04:51:43.825Z,4.50
2022-08-27T04:56:46.983Z,4.63
2022-08-27T05:01:50.496Z,4.15
2022-08-27T05:06:54.779Z,4.40
2022-08-27T05:12:00.808Z,4.45
2022-08-27T05:17:04.288Z,3.95
2022-08-27T05:22:09.859Z,4.30
2022-08-27T05:27:13.117Z,5.25
2022-08-27T05:32:16.359Z,4.22
2022-08-27T05:37:19.495Z,5.13
2022-08-27T05:42:22.550Z,5.20
2022-08-27T05:47:26.022Z,5.28
2022-08-27T05:52:29.553Z,5.13
2022-08-27T05:57:33.125Z,6.07
2022-08-27T06:02:38.107Z,5.75
2022-08-27T06:07:47.075Z,5.78
2022-08-27T06:12:53.785Z,6.65
2022-08-27T06:18:00.090Z,6.68
2022-08-27T06:23:04.207Z,7.53
2022-08-27T06:28:09.834Z,7.13
2022-08-27T06:33:13.160Z,6.93
2022-08-27T06:38:18.826Z,7.47
2022-08-27T06:43:25.015Z,6.63
2022-08-27T06:48:28.995Z,6.82
2022-08-27T06:53:37.639Z,6.50
2022-08-27T06:58:41.769Z,6.25
2022-08-27T07:03:45.311Z,5.93
2022-08-27T07:08:53.336Z,5.93
2022-08-27T07:13:57.084Z,5.40
2022-08-27T07:19:04.213Z,4.72
2022-08-27T07:24:10.324Z,5.05
2022-08-27T07:29:16.311Z,5.05
2022-08-27T07:34:19.769Z,5.70
2022-08-27T07:39:22.902Z,6.53
2022-08-27T07:45:46.711Z,6.90
2022-08-27T07:51:09.430Z,8.38
2022-08-27T07:56:40.034Z,7.43
2022-08-27T08:07:56.440Z,7.60
2022-08-27T08:13:19.826Z,7.63
2022-08-27T08:38:24.171Z,5.30
2022-08-27T08:39:11.062Z,7.15
2022-08-27T08:43:42.665Z,5.68
2022-08-27T08:49:57.249Z,5.00
2022-08-27T08:55:10.723Z,4.93
2022-08-27T09:00:32.702Z,4.57
2022-08-27T09:06:24.138Z,4.97
2022-08-27T09:11:40.830Z,4.75
2022-08-27T09:17:25.096Z,4.87
2022-08-27T09:23:15.567Z,3.92
2022-08-27T09:28:51.406Z,3.53
2022-08-27T09:34:04.616Z,4.38
2022-08-27T09:39:38.194Z,3.95
2022-08-27T09:44:58.826Z,3.95
2022-08-27T09:56:18.256Z,4.22
2022-08-27T10:13:58.139Z,3.95
2022-08-27T10:19:08.917Z,3.90
2022-08-27T10:24:30.940Z,3.83
2022-08-27T10:29:47.355Z,3.55
2022-08-27T10:35:05.300Z,3.30
2022-08-27T10:40:18.787Z,3.90
2022-08-27T10:45:54.543Z,4.05
2022-08-27T10:51:09.302Z,4.38
2022-08-27T10:56:15.525Z,5.25
2022-08-27T11:01:34.886Z,4.55
2022-08-27T11:06:53.035Z,4.32
2022-08-27T11:12:15.648Z,4.38
2022-08-27T11:17:42.801Z,5.10
2022-08-27T11:23:04.048Z,4.85
2022-08-27T11:28:09.103Z,4.13
2022-08-27T11:33:21.189Z,4.10
2022-08-27T11:38:40.563Z,3.90
2022-08-27T11:43:46.193Z,3.35
2022-08-27T11:48:58.744Z,3.15
2022-08-27T11:54:08.283Z,3.00
2022-08-27T11:59:23.872Z,3.15
2022-08-27T12:04:40.479Z,3.10
2022-08-27T12:10:08.415Z,2.90
2022-08-27T12:15:33.119Z,3.10
2022-08-27T12:20:56.972Z,3.05
2022-08-27T12:26:27.341Z,2.90
2022-08-27T12:31:31.189Z,2.60
2022-08-27T12:36:35.995Z,2.55
2022-08-27T12:41:47.348Z,3.08
2022-08-27T12:46:54.014Z,2.63
2022-08-27T12:52:04.000Z,2.70
2022-08-27T12:57:33.458Z,2.50
2022-08-27T13:02:45.518Z,2.60
2022-08-27T13:07:51.549Z,2.70
2022-08-27T13:13:08.286Z,2.60
2022-08-27T13:18:12.629Z,2.80
2022-08-27T13:23:24.633Z,2.55
2022-08-27T13:28:30.957Z,2.55
2022-08-27T13:33:37.156Z,2.67
2022-08-27T13:38:50.078Z,2.65
2022-08-27T13:43:58.552Z,2.60
2022-08-27T13:49:03.012Z,2.38
2022-08-27T13:54:16.579Z,2.63
2022-08-27T13:59:20.247Z,3.05
2022-08-27T14:04:51.998Z,2.53
2022-08-27T14:10:04.779Z,2.35
2022-08-27T14:15:32.510Z,2.45
2022-08-27T14:20:38.474Z,2.75
2022-08-27T14:25:42.089Z,2.33
2022-08-27T14:30:51.033Z,2.40
2022-08-27T14:35:57.236Z,2.45
2022-08-27T14:41:00.968Z,2.08
2022-08-27T14:46:07.097Z,2.53
2022-08-27T14:51:17.201Z,2.40
2022-08-27T14:56:22.324Z,2.40
2022-08-27T15:01:27.342Z,2.22
2022-08-27T15:06:31.068Z,2.42
2022-08-27T15:11:37.983Z,2.38
2022-08-27T15:16:43.321Z,3.30
2022-08-27T15:21:48.673Z,3.00
2022-08-27T15:26:58.773Z,3.15
2022-08-27T15:32:02.417Z,3.08
2022-08-27T15:37:06.033Z,3.67
2022-08-27T15:42:10.514Z,3.22
2022-08-27T15:47:19.336Z,3.05
2022-08-27T15:52:24.831Z,3.42
2022-08-27T15:57:28.246Z,3.42
2022-08-27T16:02:31.831Z,3.70
2022-08-27T16:07:35.358Z,3.53
2022-08-27T16:12:39.115Z,3.90
2022-08-27T16:17:44.071Z,3.55
2022-08-27T16:22:47.962Z,2.90
2022-08-27T16:27:52.112Z,3.30
2022-08-27T16:32:56.716Z,3.13
2022-08-27T16:38:00.347Z,2.90
2022-08-27T16:43:03.838Z,3.60
2022-08-27T16:48:25.717Z,3.05
2022-08-27T16:53:32.107Z,2.85
2022-08-27T16:58:35.831Z,3.10
2022-08-27T17:04:07.412Z,2.90
2022-08-27T17:09:12.666Z,3.53
2022-08-27T17:25:31.847Z,3.95
2022-08-27T17:30:35.327Z,4.13
2022-08-27T17:35:39.326Z,4.00
2022-08-27T17:40:47.040Z,4.40
2022-08-27T17:45:55.782Z,5.18
2022-08-27T17:51:00.623Z,5.47
2022-08-27T17:56:04.113Z,5.55
2022-08-27T18:01:11.422Z,5.50
2022-08-27T18:06:15.410Z,5.78
2022-08-27T18:11:19.563Z,6.05
2022-08-27T18:16:23.517Z,5.90
2022-08-27T18:21:27.041Z,6.00
2022-08-27T18:26:32.225Z,6.35
2022-08-27T18:31:35.959Z,6.85
2022-08-27T18:36:39.830Z,6.53
2022-08-27T18:41:43.529Z,6.35
2022-08-27T18:46:48.010Z,7.25
2022-08-27T18:51:52.772Z,6.70
2022-08-27T18:56:57.523Z,6.75
2022-08-27T19:02:01.541Z,6.93
2022-08-27T19:07:05.777Z,7.25
2022-08-27T19:12:10.464Z,7.30
2022-08-27T19:17:25.978Z,7.47
2022-08-27T19:22:31.439Z,6.80
2022-08-27T19:27:35.826Z,7.22
2022-08-27T19:32:39.377Z,7.38
2022-08-27T19:37:52.692Z,7.18
2022-08-27T19:42:57.172Z,7.20
2022-08-27T19:48:03.653Z,6.70
2022-08-27T19:53:08.472Z,7.63
2022-08-27T19:58:14.044Z,7.40
2022-08-27T20:03:20.704Z,7.40
2022-08-27T20:08:24.205Z,7.43
2022-08-27T20:13:32.365Z,7.25
2022-08-27T20:18:36.631Z,7.57
2022-08-27T20:23:40.203Z,7.00
2022-08-27T20:28:44.192Z,7.18
2022-08-27T20:33:51.272Z,6.95
2022-08-27T20:38:55.138Z,6.78
2022-08-27T20:43:58.587Z,7.18
2022-08-27T20:49:02.666Z,6.10
2022-08-27T20:54:06.302Z,6.57
2022-08-27T20:59:28.782Z,6.30
2022-08-27T21:04:41.265Z,6.25
2022-08-27T21:09:56.380Z,6.68
2022-08-27T21:15:03.292Z,6.78
2022-08-27T21:20:09.733Z,6.28
2022-08-27T21:25:14.669Z,6.90
2022-08-27T21:30:18.721Z,6.97
2022-08-27T21:35:29.890Z,7.00
2022-08-27T21:40:33.915Z,7.40
2022-08-27T21:45:39.954Z,7.95
2022-08-27T21:50:43.689Z,7.72
2022-08-27T21:55:47.377Z,7.03
2022-08-27T22:00:51.780Z,6.38
2022-08-27T22:05:55.324Z,5.22
2022-08-27T22:10:59.254Z,5.10
2022-08-27T22:16:03.667Z,2.88
2022-08-27T22:21:07.757Z,2.03
2022-08-27T22:26:11.196Z,1.42
2022-08-27T22:31:17.661Z,1.30
2022-08-27T22:36:21.358Z,1.50
2022-08-27T22:41:24.971Z,1.27
2022-08-27T22:46:28.929Z,1.30
2022-08-27T22:51:32.712Z,1.10
2022-08-27T22:56:36.917Z,1.10
2022-08-27T23:01:41.311Z,1.40
2022-08-27T23:06:45.150Z,1.02
2022-08-27T23:11:49.660Z,1.42
2022-08-27T23:16:53.324Z,1.38
2022-08-27T23:22:00.074Z,1.20
2022-08-27T23:27:21.991Z,1.55
2022-08-27T23:32:25.868Z,1.45
2022-08-27T23:37:29.605Z,1.20
2022-08-27T23:42:33.036Z,1.27
2022-08-27T23:47:36.639Z,1.20
2022-08-27T23:52:41.035Z,1.60
2022-08-27T23:57:44.611Z,1.50
